Latest Weather Observations for Derby

IDW60801

Issued at 6:04 pm WST Sunday 4 December 2016 (issued every 30 minutes, with the page automatically refreshed every 10 minutes)

About weather observations | Map of weather stations | Latest weather observations for WA | Other Formats
Station Details ID: 003032 Name: DERBY AERO Lat: -17.37 Lon: 123.66 Height: 6.2 m
Data from the previous 72 hours. | See also: Recent months at Derby
Date/Time
WST
Temp
°C
App
Temp
°C
Dew
Point
°C
Rel
Hum
%
Delta-T
°C
Wind Press
QNH
hPa
Press
MSL
hPa
Rain since
9am
mm
Dir  Spd
km/h
Gust
km/h
Spd
kts
Gust
kts
04/06:00pm 25.4 23.6 20.4 74 3.3 NE 30 46 16 25 1008.4 1008.3 0.0
04/05:30pm 27.4 25.4 21.2 69 4.1 ENE 33 52 18 28 1007.6 1007.5 0.0
04/05:29pm 27.4 25.4 21.2 69 4.1 ENE 33 52 18 28 1007.6 1007.5 0.0
04/05:17pm 29.5 26.9 19.5 55 6.5 NE 32 50 17 27 1007.6 1007.5 0.0
04/05:00pm 32.0 32.1 24.6 65 5.2 NNW 32 39 17 21 1006.5 1006.4 0.0
04/04:30pm 31.9 31.3 25.5 69 4.5 NNW 39 48 21 26 1005.8 1005.7 0.0
04/04:00pm 32.9 32.2 24.1 60 6.2 NNW 35 46 19 25 1005.3 1005.2 0.0
04/03:30pm 34.9 33.7 22.6 49 8.5 NW 33 41 18 22 1004.7 1004.6 0.0
04/03:00pm 36.3 35.7 20.5 39 10.7 NW 24 33 13 18 1004.8 1004.7 0.0
04/02:30pm 36.7 34.9 18.7 34 11.9 NW 26 32 14 17 1005.4 1005.3 0.0
04/02:00pm 37.5 36.8 20.3 36 11.6 NW 24 32 13 17 1005.5 1005.4 0.0
04/01:30pm 36.9 37.3 19.8 36 11.4 WNW 17 35 9 19 1005.8 1005.7 0.0
04/01:00pm 36.3 37.0 18.8 35 11.6 S 13 19 7 10 1006.4 1006.3 0.0
04/12:30pm 36.2 38.0 18.7 35 11.5 NNE 7 11 4 6 1006.6 1006.5 0.0
04/12:00pm 36.1 37.1 19.5 37 11.0 SSE 13 24 7 13 1007.2 1007.1 0.0
04/11:30am 35.7 36.9 20.0 39 10.5 WNW 13 22 7 12 1007.6 1007.5 0.0
04/11:00am 34.8 36.4 20.7 43 9.5 SSW 13 20 7 11 1008.3 1008.2 0.0
04/10:30am 34.3 36.3 20.7 45 9.1 SW 11 19 6 10 1009.0 1008.9 0.0
04/10:00am 34.4 37.7 21.8 48 8.6 SW 7 17 4 9 1009.2 1009.1 0.0
04/09:30am 33.0 35.3 22.1 52 7.4 WSW 13 19 7 10 1009.7 1009.7 0.0
04/09:00am 32.4 35.1 22.8 57 6.6 SW 13 22 7 12 1009.8 1009.8 0.0
04/08:30am 31.9 35.5 23.7 62 5.7 SSW 11 22 6 12 1009.7 1009.7 0.0
04/08:00am 30.6 33.5 23.8 67 4.7 SSW 15 20 8 11 1009.5 1009.4 0.0
04/07:30am 29.7 32.8 24.1 72 3.9 SSW 15 19 8 10 1009.4 1009.3 0.0
04/07:00am 29.3 32.8 24.2 74 3.5 SW 13 17 7 9 1009.4 1009.3 0.0
04/06:30am 29.1 32.5 24.0 74 3.5 WSW 13 17 7 9 1009.6 1009.5 0.0
04/06:00am 29.0 32.4 24.1 75 3.4 WSW 13 17 7 9 1009.5 1009.4 0.0
04/05:30am 28.5 32.6 23.9 76 3.2 W 9 11 5 6 1009.5 1009.4 0.0
04/05:00am 28.2 32.2 23.8 77 3.0 W 9 11 5 6 1009.3 1009.2 0.0
04/04:30am 28.3 31.6 23.9 77 3.0 W 13 17 7 9 1009.1 1009.0 0.0
04/04:00am 28.5 31.8 23.9 76 3.2 W 13 17 7 9 1008.7 1008.6 0.0
04/03:30am 28.5 32.0 23.6 75 3.4 WSW 11 15 6 8 1008.5 1008.4 0.0
04/03:00am 28.6 32.4 23.5 74 3.5 WSW 9 11 5 6 1008.3 1008.2 0.0
04/02:30am 28.7 32.9 23.4 73 3.6 WSW 7 9 4 5 1008.2 1008.1 0.0
04/02:00am 28.7 31.8 23.6 74 3.5 W 13 17 7 9 1008.3 1008.2 0.0
04/01:30am 28.9 31.4 23.8 74 3.5 W 17 20 9 11 1008.3 1008.2 0.0
04/01:00am 29.0 31.3 23.4 72 3.9 WNW 17 20 9 11 1008.3 1008.2 0.0
04/12:30am 29.3 31.5 23.3 70 4.1 WNW 17 22 9 12 1008.4 1008.3 0.0
04/12:00am 29.8 32.2 23.0 67 4.7 WNW 15 19 8 10 1008.5 1008.4 0.0
 
Date/Time
WST
Temp
°C
App
Temp
°C
Dew
Point
°C
Rel
Hum
%
Delta-T
°C
Wind Press
QNH
hPa
Press
MSL
hPa
Rain since
9am
mm
Dir  Spd
km/h
Gust
km/h
Spd
kts
Gust
kts
03/11:30pm 30.0 31.9 22.7 65 5.0 WNW 17 20 9 11 1008.8 1008.7 0.0
03/11:00pm 30.4 31.8 22.6 63 5.3 WNW 19 24 10 13 1009.0 1008.9 0.0
03/10:30pm 30.7 31.4 22.3 61 5.7 NW 22 28 12 15 1009.1 1009.0 0.0
03/10:00pm 31.0 31.9 22.6 61 5.7 NW 22 26 12 14 1009.1 1009.0 0.0
03/09:30pm 31.3 32.6 24.7 68 4.6 NNW 26 32 14 17 1009.0 1008.9 0.0
03/09:00pm 31.6 34.3 25.7 71 4.2 NNW 22 30 12 16 1008.7 1008.6 0.0
03/08:30pm 31.4 33.3 25.0 69 4.5 NNW 24 32 13 17 1008.2 1008.1 0.0
03/08:00pm 31.6 33.5 25.0 68 4.7 NNW 24 32 13 17 1008.0 1007.9 0.0
03/07:30pm 31.5 33.1 25.1 69 4.5 NNW 26 33 14 18 1007.4 1007.3 0.0
03/07:00pm 32.2 33.4 24.5 64 5.4 NNW 26 32 14 17 1007.2 1007.1 0.0
03/06:30pm 32.1 33.9 24.2 63 5.5 NNW 22 28 12 15 1006.9 1006.8 0.0
03/06:00pm 32.4 33.6 23.9 61 5.9 NNW 24 30 13 16 1006.3 1006.2 0.0
03/05:30pm 33.1 33.4 22.2 52 7.4 NNW 24 30 13 16 1005.9 1005.8 0.0
03/05:00pm 34.0 32.8 20.0 43 9.3 NW 26 30 14 16 1005.8 1005.7 0.0
03/04:30pm 34.6 32.7 19.4 40 10.0 NW 28 32 15 17 1005.7 1005.6 0.0
03/04:00pm 33.3 31.7 21.5 50 8.0 NW 32 39 17 21 1005.7 1005.6 0.0
03/03:30pm 33.3 31.5 21.5 50 8.0 NW 33 39 18 21 1005.9 1005.8 0.0
03/03:00pm 34.1 30.5 20.1 43 9.3 NW 39 46 21 25 1006.2 1006.1 0.0
03/02:30pm 35.4 31.4 18.5 37 11.1 NW 37 43 20 23 1006.2 1006.1 0.0
03/02:00pm 35.8 32.7 18.8 36 11.2 NW 33 39 18 21 1006.1 1006.0 0.0
03/01:30pm 35.7 32.8 19.2 38 10.9 NNW 33 44 18 24 1006.5 1006.4 0.0
03/01:00pm 36.3 34.2 20.9 40 10.4 NNW 33 43 18 23 1006.7 1006.6 0.0
03/12:30pm 36.7 34.0 19.2 36 11.6 NW 32 43 17 23 1007.2 1007.1 0.0
03/12:00pm 36.5 36.1 19.0 35 11.6 NNW 19 33 10 18 1007.7 1007.6 0.0
03/11:30am 37.0 37.1 16.5 29 13.1 SE 11 20 6 11 1007.8 1007.7 0.0
03/11:00am 36.3 36.8 16.5 31 12.7 WSW 9 15 5 8 1008.3 1008.2 0.0
03/10:30am 35.8 36.5 17.0 32 12.1 NNE 9 17 5 9 1009.1 1009.0 0.0
03/10:00am 35.4 37.3 18.9 37 10.9 E 7 15 4 8 1009.7 1009.7 0.0
03/09:30am 33.5 34.4 17.6 38 10.2 E 9 17 5 9 1010.0 1010.0 0.0
03/09:00am 33.2 34.4 18.2 41 9.7 SE 9 20 5 11 1010.2 1010.2 0.0
03/08:30am 33.1 35.4 19.9 45 8.7 SSW 7 13 4 7 1010.4 1010.4 0.0
03/08:00am 31.0 33.6 22.0 58 6.1 SSE 11 19 6 10 1010.0 1010.0 0.0
03/07:30am 30.1 33.1 23.3 67 4.7 SE 13 17 7 9 1009.8 1009.8 0.0
03/07:00am 29.9 33.4 23.6 69 4.4 SSE 11 17 6 9 1009.4 1009.3 0.0
03/06:30am 29.4 33.3 23.6 71 4.0 ESE 9 15 5 8 1009.4 1009.3 0.0
03/06:00am 28.4 32.6 23.5 75 3.4 SE 7 9 4 5 1009.0 1008.9 0.0
03/05:30am 27.5 31.3 23.5 79 2.7 E 9 11 5 6 1008.8 1008.7 0.0
03/05:00am 27.4 31.5 23.2 78 2.9 S 7 9 4 5 1008.4 1008.3 0.0
03/04:30am 27.3 30.9 23.1 78 2.9 WSW 9 11 5 6 1007.7 1007.6 0.0
03/04:00am 27.7 30.9 23.7 79 2.8 WNW 13 17 7 9 1007.4 1007.3 0.0
03/03:30am 27.9 30.3 23.7 78 2.9 WNW 17 19 9 10 1007.4 1007.3 0.0
03/03:00am 28.1 30.4 23.5 76 3.2 W 17 19 9 10 1006.9 1006.8 0.0
03/02:30am 28.2 30.6 23.6 76 3.2 WNW 17 20 9 11 1006.8 1006.7 0.0
03/02:00am 28.1 30.9 23.0 74 3.5 WNW 13 17 7 9 1007.1 1007.0 0.0
03/01:30am 27.8 31.0 23.0 75 3.3 NW 11 13 6 7 1007.0 1006.9 0.0
03/01:00am 28.0 32.2 23.2 75 3.3 NNW 6 9 3 5 1007.2 1007.1 0.0
03/12:30am 28.3 32.0 23.2 74 3.5 WNW 9 15 5 8 1007.3 1007.2 0.0
03/12:00am 28.7 31.6 23.1 71 3.8 WNW 13 17 7 9 1007.5 1007.4 0.0
 
Date/Time
WST
Temp
°C
App
Temp
°C
Dew
Point
°C
Rel
Hum
%
Delta-T
°C
Wind Press
QNH
hPa
Press
MSL
hPa
Rain since
9am
mm
Dir  Spd
km/h
Gust
km/h
Spd
kts
Gust
kts
02/11:30pm 28.9 30.3 22.9 70 4.1 WNW 20 28 11 15 1007.5 1007.4 0.0
02/11:00pm 29.2 31.4 23.2 70 4.1 WNW 17 22 9 12 1007.5 1007.4 0.0
02/10:30pm 29.6 30.6 22.8 67 4.6 WNW 22 26 12 14 1007.4 1007.3 0.0
02/10:00pm 30.0 31.6 23.2 67 4.7 NW 20 30 11 16 1007.5 1007.4 0.0
02/09:30pm 30.6 32.6 24.5 70 4.3 NW 22 28 12 15 1007.4 1007.3 0.0
02/09:00pm 31.1 31.3 24.7 68 4.5 NNW 32 39 17 21 1007.3 1007.2 0.0
02/08:30pm 31.7 33.3 25.1 68 4.7 NNW 26 35 14 19 1007.0 1006.9 0.0
02/08:00pm 31.7 33.9 24.8 67 4.9 N 22 28 12 15 1006.6 1006.5 0.0
02/07:30pm 31.4 33.8 24.3 66 5.0 N 19 22 10 12 1006.3 1006.2 0.0
02/07:00pm 31.6 33.8 24.0 64 5.3 N 19 24 10 13 1005.9 1005.8 0.0
02/06:30pm 31.7 33.8 23.8 63 5.5 NNW 19 24 10 13 1005.4 1005.3 0.0
02/06:00pm 31.8 32.9 23.6 62 5.7 NNW 24 32 13 17 1005.2 1005.1 0.0
02/05:30pm 32.9 33.5 23.5 57 6.5 NNW 26 32 14 17 1004.9 1004.8 0.0
02/05:00pm 32.8 33.0 23.4 57 6.5 NNW 28 35 15 19 1004.8 1004.7 0.0
02/04:30pm 33.3 32.9 22.4 52 7.5 NNW 28 33 15 18 1004.7 1004.6 0.0
02/04:00pm 32.5 33.8 22.6 56 6.8 NW 20 28 11 15 1004.9 1004.8 0.0
02/03:30pm 32.8 34.0 23.2 57 6.6 NW 22 30 12 16 1005.0 1004.9 0.0
02/03:00pm 31.4 31.2 22.7 60 6.0 WNW 28 33 15 18 1005.8 1005.7 0.0
02/02:43pm 31.0 30.6 24.1 66 4.8 WNW 33 39 18 21 1006.5 1006.4 0.0
02/02:30pm 32.0 31.4 25.6 69 4.5 NW 39 54 21 29 1006.1 1006.0 0.0
02/02:00pm 33.2 31.3 23.5 56 6.7 NW 39 44 21 24 1006.0 1005.9 0.0
02/01:30pm 34.4 33.5 23.1 51 7.8 NNW 33 43 18 23 1006.1 1006.0 0.0
02/01:00pm 37.2 35.8 19.6 35 11.8 NNW 26 33 14 18 1005.7 1005.6 0.0
02/12:30pm 37.5 37.7 19.4 34 12.1 NW 17 28 9 15 1006.4 1006.3 0.0
02/12:00pm 37.5 38.1 20.3 36 11.6 NW 17 33 9 18 1006.8 1006.7 0.0
02/11:30am 36.2 38.0 21.2 41 10.2 WNW 13 22 7 12 1007.5 1007.4 0.0
02/11:00am 35.4 37.5 20.9 42 9.8 NNW 11 19 6 10 1008.0 1007.9 0.0
02/10:30am 35.8 37.9 20.1 40 10.5 S 9 15 5 8 1008.4 1008.3 0.0
02/10:00am 34.5 36.4 20.5 44 9.4 SE 11 19 6 10 1009.1 1009.0 0.0
02/09:30am 34.2 36.2 21.6 47 8.6 ESE 13 22 7 12 1009.3 1009.2 0.0
02/09:00am 33.2 36.3 21.4 50 8.0 WSW 7 13 4 7 1009.3 1009.2 0.0
02/08:30am 31.6 34.7 22.9 60 6.0 SSW 11 20 6 11 1009.1 1009.0 0.0
02/08:00am 31.2 34.8 23.8 64 5.1 W 11 17 6 9 1008.6 1008.5 0.0
02/07:30am 30.0 33.4 24.6 73 3.8 WNW 15 20 8 11 1008.2 1008.1 0.0
02/07:00am 29.9 33.1 25.0 75 3.4 WNW 17 22 9 12 1008.3 1008.2 0.0
02/06:30am 29.6 32.5 25.1 77 3.2 W 19 24 10 13 1007.7 1007.6 0.0
02/06:00am 29.1 31.7 24.9 78 2.9 WNW 20 26 11 14 1007.5 1007.4 0.0
02/05:30am 28.4 31.0 24.6 80 2.6 WNW 19 22 10 12 1007.0 1006.9 0.0
02/05:00am 27.9 31.1 24.3 81 2.5 NW 15 17 8 9 1006.6 1006.5 0.0
02/04:30am 28.1 31.2 24.1 79 2.8 NW 15 17 8 9 1006.3 1006.2 0.0
02/04:00am 28.5 31.2 24.1 77 3.1 NW 17 19 9 10 1006.0 1005.9 0.0
02/03:30am 28.1 31.2 24.1 79 2.8 NW 15 19 8 10 1005.6 1005.5 0.0
02/03:00am 28.1 32.3 24.1 79 2.8 NW 9 13 5 7 1005.7 1005.6 0.0
02/02:30am 28.4 32.7 24.2 78 2.9 NW 9 13 5 7 1005.6 1005.5 0.0
02/02:00am 28.6 31.9 23.9 75 3.3 NW 13 15 7 8 1005.5 1005.4 0.0
02/01:30am 28.7 31.7 24.0 76 3.3 WNW 15 17 8 9 1005.4 1005.3 0.0
02/01:00am 29.0 31.2 23.9 74 3.5 WNW 19 24 10 13 1005.5 1005.4 0.0
02/12:30am 29.1 31.2 23.8 73 3.7 WNW 19 26 10 14 1005.8 1005.7 0.0
02/12:00am 29.4 31.3 23.4 70 4.1 NW 19 22 10 12 1006.3 1006.2 0.0
 
Date/Time
WST
Temp
°C
App
Temp
°C
Dew
Point
°C
Rel
Hum
%
Delta-T
°C
Wind Press
QNH
hPa
Press
MSL
hPa
Rain since
9am
mm
Dir  Spd
km/h
Gust
km/h
Spd
kts
Gust
kts
01/11:30pm 29.5 32.4 23.2 69 4.3 NW 13 15 7 8 1006.7 1006.6 0.0
01/11:00pm 30.1 32.4 22.8 65 5.0 NW 15 20 8 11 1006.7 1006.6 0.0
01/10:30pm 30.5 32.4 22.1 61 5.7 WNW 15 19 8 10 1006.8 1006.7 0.0
01/10:00pm 31.1 32.5 21.9 58 6.2 W 17 20 9 11 1006.8 1006.7 0.0
01/09:30pm 32.0 33.2 21.5 53 7.1 W 17 20 9 11 1007.0 1006.9 0.0
01/09:00pm 32.4 33.8 21.9 54 7.1 NW 17 24 9 13 1006.5 1006.4 0.0
01/08:30pm 32.7 34.3 24.5 62 5.8 NW 24 28 13 15 1005.7 1005.6 0.0
01/08:00pm 33.1 36.2 24.8 61 5.9 NNW 17 20 9 11 1005.4 1005.3 0.0
01/07:30pm 33.0 35.6 23.9 59 6.3 NNW 17 20 9 11 1004.9 1004.8 0.0
01/07:00pm 33.9 35.0 22.3 50 8.0 NNW 20 26 11 14 1004.6 1004.5 0.0
01/06:30pm 33.3 37.1 25.3 63 5.7 N 15 19 8 10 1004.4 1004.3 0.0

Other Formats:

Comma delimited format used in spreadsheet applications
http://www.bom.gov.au/fwo/IDW60801/IDW60801.95205.axf

JavaScript Object Notation format (JSON) in row-major order
http://www.bom.gov.au/fwo/IDW60801/IDW60801.95205.json